Kingston, TN (37763)

1:20 PM EDT on July 28, 2016 (GMT -0400)
Laurel Bluff Farm | | Change Station

Elev 817 ft 35.78 °N, 84.53 °W | Updated 7 minutes ago

Mostly Cloudy
Mostly Cloudy
85.3 °F
Feels Like 94 °F
N
2.7
Wind Variable Wind from South

Today
High -- | Low -- °F
--% Chance of Precip.
Yesterday
High -- | Low -- °F
Precip. -- in
Pressure 29.91 in
Visibility 10.0 miles
Clouds Mostly Cloudy 3300 ft
Mostly Cloudy 5500 ft
Heat Index 94 °F
Dew Point 75 °F
Humidity 72%
Rainfall 0.02 in
Snow Depth Not available.
6:42 AM 8:45 PM
Waning Crescent, 30% visible
METAR KOQT 281653Z AUTO 21007G17KT 190V250 10SM BKN033 BKN055 29/20 A2997 RMK AO2 SLP127 T02940200
Pressure 29.91 in
Visibility 10.0 miles
Clouds Mostly Cloudy 3300 ft
Mostly Cloudy 5500 ft
Heat Index 94 °F
Dew Point 75 °F
Humidity 72%
Rainfall 0.02 in
Snow Depth Not available.
6:42 AM 8:45 PM
Waning Crescent, 30% visible
METAR KOQT 281653Z AUTO 21007G17KT 190V250 10SM BKN033 BKN055 29/20 A2997 RMK AO2 SLP127 T02940200

10-Day Weather Forecast

Almanac

Astronomy

Jul. 28, 2016 Rise Set
Actual Time
Civil Twilight
Nautical Twilight
Astronomical Twilight
Moon
Length of Visible Light
Length of Day
Tomorrow will be .
, % of the Moon is Illuminated

Today's Extremes

State Highs State Lows

Community

WunderPhotos

Upload Photos

1,928,163 photos uploaded!

WunderBlog® & News

Nearby

Air Quality

  Air Quality AQ Index Pollutant
Not available.

Snow Depth

Station Depth Elevation

Earthquake Activity

City Distance Mag. Time & Date
Minimum magnitude displayed is 2.5.

Coastal Water Temperatures

Place Temperature

Stations

Nearby Weather Stations

Station Location Temp. Windchill Dew Point Humidity Wind Precip. Elev Updated Type
                   

Watches & Warnings

There are currently no watches in effect.